ADDS METAR Data INFO
IDs: Format: Raw Decoded Include TAF

Data at: 0111 UTC 21 Oct 2017

KFYG 210055Z AUTO 14007KT 10SM CLR 21/10 A3001 RMK AO2
KFYG 210035Z AUTO 14008KT 10SM CLR 21/10 A3002 RMK AO2
KFYG 210015Z AUTO 14007KT 10SM CLR 21/09 A3003 RMK AO2
KFYG 202355Z AUTO 14006KT 10SM CLR 22/09 A3003 RMK AO2
KFYG 202335Z AUTO 14007KT 10SM CLR 22/09 A3002 RMK AO2
KFYG 202315Z AUTO 15003KT 7SM CLR 22/09 A3003 RMK AO2
KFYG 202255Z AUTO 16006KT 5SM HZ CLR 23/08 A3002 RMK AO2
KFYG 202235Z AUTO 14006KT 10SM CLR 23/08 A3001 RMK AO2
KFYG 202215Z AUTO 15008KT 10SM CLR 24/08 A3002 RMK AO2
KFYG 202155Z AUTO 16008KT 10SM CLR 25/07 A3002 RMK AO2
KFYG 202135Z AUTO 17013KT 10SM CLR 25/06 A3003 RMK AO2
KFYG 202115Z AUTO 16013KT 10SM CLR 26/06 A3003 RMK AO2
KFYG 202055Z AUTO 12009KT 10SM CLR 25/11 A3003 RMK AO2
KFYG 202035Z AUTO 12005KT 10SM CLR 26/08 A3004 RMK AO2
KFYG 202015Z AUTO 18008KT 10SM CLR 25/04 A3005 RMK AO2
KFYG 201955Z AUTO 00000KT 10SM CLR 25/10 A3005 RMK AO2
KFYG 201935Z AUTO 14003KT 9SM CLR 25/09 A3006 RMK AO2
KFYG 201915Z AUTO 16008KT 10SM CLR 25/09 A3007 RMK AO2
KFYG 201855Z AUTO 14008KT 10SM CLR 24/09 A3008 RMK AO2
KFYG 201835Z AUTO 16009KT 10SM CLR 24/10 A3009 RMK AO2
KFYG 201815Z AUTO 16005KT 10SM CLR 23/10 A3011 RMK AO2
KFYG 201755Z AUTO 15005KT 10SM CLR 23/10 A3012 RMK AO2
KFYG 201735Z AUTO 14004KT 10SM CLR 23/11 A3013 RMK AO2
KFYG 201715Z AUTO 16008KT 10SM CLR 22/10 A3014 RMK AO2
KFYG 201655Z AUTO 13004KT 10SM CLR 21/11 A3016 RMK AO2
KFYG 201635Z AUTO 14003KT 10SM CLR 20/11 A3016 RMK AO2
KFYG 201615Z AUTO 15005KT 10SM CLR 20/11 A3018 RMK AO2
KFYG 201555Z AUTO 00000KT 10SM CLR 19/11 A3018 RMK AO2
KFYG 201535Z AUTO 00000KT 10SM CLR 18/12 A3019 RMK AO2
KFYG 201515Z AUTO 00000KT 10SM CLR 17/11 A3020 RMK AO2
KFYG 201455Z AUTO 00000KT 10SM CLR 17/10 A3020 RMK AO2
KFYG 201435Z AUTO 13003KT 10SM CLR 15/12 A3020 RMK AO2
KFYG 201415Z AUTO 14003KT 10SM CLR 13/13 A3021 RMK AO2
KFYG 201355Z AUTO 00000KT 10SM CLR 12/12 A3020 RMK AO2
KFYG 201335Z AUTO 00000KT 9SM CLR 10/10 A3021 RMK AO2
KFYG 201315Z AUTO 00000KT 3/4SM BR BKN001 08/08 A3021 RMK AO2
KFYG 201255Z AUTO 00000KT 1/4SM FG VV002 08/08 A3020 RMK AO2
KFYG 201235Z AUTO 00000KT M1/4SM FG VV000 08/08 A3019 RMK AO2
KFYG 201215Z AUTO 00000KT 1/2SM FG VV005 08/08 A3020 RMK AO2
KFYG 201155Z AUTO 00000KT 5SM BR CLR 08/08 A3019 RMK AO2
KFYG 201135Z AUTO 00000KT 1/2SM FG VV005 08/08 A3019 RMK AO2
KFYG 201115Z AUTO 00000KT 1/4SM FG VV002 09/09 A3019 RMK AO2
KFYG 201055Z AUTO 00000KT 1SM BR CLR 09/09 A3018 RMK AO2
KFYG 201035Z AUTO 00000KT 5SM BR CLR 09/09 A3018 RMK AO2
KFYG 201015Z AUTO 00000KT 7SM CLR 08/08 A3017 RMK AO2
KFYG 200955Z AUTO 00000KT 1 1/2SM BR CLR 09/09 A3017 RMK AO2 VSBY 3/4V5
KFYG 200935Z AUTO 00000KT 5SM BR CLR 09/09 A3017 RMK AO2
KFYG 200915Z AUTO 00000KT 1 3/4SM BR CLR 08/08 A3016 RMK AO2
KFYG 200855Z AUTO 00000KT 9SM CLR 09/09 A3016 RMK AO2
KFYG 200835Z AUTO 00000KT 1 3/4SM BR CLR 09/09 A3015 RMK AO2 VSBY 1V5
KFYG 200815Z AUTO 00000KT 1SM BR CLR 09/09 A3015 RMK AO2 VSBY 1/2V5
KFYG 200755Z AUTO 00000KT 6SM BR CLR 10/10 A3015 RMK AO2
KFYG 200735Z AUTO 00000KT 10SM CLR 10/10 A3015 RMK AO2
KFYG 200715Z AUTO 00000KT 10SM CLR 11/10 A3015 RMK AO2
KFYG 200655Z AUTO 00000KT 10SM CLR 10/10 A3015 RMK AO2
KFYG 200635Z AUTO 00000KT 10SM CLR 10/10 A3014 RMK AO2
KFYG 200615Z AUTO 00000KT 10SM CLR 11/09 A3014 RMK AO2
KFYG 200555Z AUTO 00000KT 10SM CLR 12/10 A3014 RMK AO2
KFYG 200535Z AUTO 00000KT 10SM CLR 12/10 A3014 RMK AO2
KFYG 200515Z AUTO 00000KT 10SM CLR 13/10 A3014 RMK AO2
KFYG 200455Z AUTO 00000KT 10SM CLR 14/11 A3014 RMK AO2
KFYG 200435Z AUTO 00000KT 10SM CLR 12/12 A3014 RMK AO2
KFYG 200415Z AUTO 00000KT 10SM CLR 12/11 A3014 RMK AO2
KFYG 200355Z AUTO 00000KT 10SM CLR 12/10 A3014 RMK AO2
KFYG 200335Z AUTO 00000KT 10SM CLR 12/12 A3014 RMK AO2
KFYG 200315Z AUTO 00000KT 10SM CLR 13/12 A3014 RMK AO2
KFYG 200255Z AUTO 00000KT 10SM CLR 13/12 A3014 RMK AO2
KFYG 200235Z AUTO 00000KT 10SM CLR 13/12 A3014 RMK AO2
KFYG 200155Z AUTO 00000KT 10SM CLR 13/12 A3013 RMK AO2
KFYG 200135Z AUTO 00000KT 10SM CLR 14/12 A3013 RMK AO2
KFYG 200055Z AUTO 00000KT 10SM CLR 16/12 A3013 RMK AO2
KFYG 200035Z AUTO 00000KT 10SM CLR 16/12 A3013 RMK AO2
KFYG 200015Z AUTO 00000KT 9SM CLR 17/13 A3013 RMK AO2
KFYG 192355Z AUTO 00000KT 10SM CLR 17/13 A3012 RMK AO2
KFYG 192335Z AUTO 00000KT 10SM CLR 19/12 A3012 RMK AO2
KFYG 192315Z AUTO 00000KT 10SM CLR 23/10 A3012 RMK AO2
KFYG 192255Z AUTO 00000KT 10SM CLR 24/11 A3012 RMK AO2
KFYG 192235Z AUTO 00000KT 7SM CLR 25/12 A3012 RMK AO2
KFYG 192215Z AUTO 00000KT 10SM CLR 26/10 A3012 RMK AO2
KFYG 192155Z AUTO 00000KT 10SM CLR 27/10 A3012 RMK AO2
KFYG 192135Z AUTO 18003KT 10SM CLR 27/10 A3011 RMK AO2
KFYG 192115Z AUTO 19008KT 10SM CLR 27/09 A3011 RMK AO2
KFYG 192055Z AUTO 00000KT 10SM CLR 27/10 A3012 RMK AO2
KFYG 192035Z AUTO 00000KT 10SM CLR 27/10 A3012 RMK AO2
KFYG 192015Z AUTO 21003KT 10SM CLR 27/10 A3012 RMK AO2
KFYG 191955Z AUTO 00000KT 9SM CLR 27/10 A3013 RMK AO2
KFYG 191935Z AUTO 00000KT 10SM CLR 26/10 A3013 RMK AO2
KFYG 191915Z AUTO 00000KT 10SM CLR 25/10 A3014 RMK AO2
KFYG 191855Z AUTO 00000KT 10SM CLR 25/10 A3014 RMK AO2
KFYG 191835Z AUTO 00000KT 10SM CLR 25/10 A3015 RMK AO2
KFYG 191815Z AUTO 00000KT 10SM CLR 24/10 A3016 RMK AO2
KFYG 191755Z AUTO 22004KT 10SM CLR 24/10 A3016 RMK AO2
KFYG 191735Z AUTO 26003KT 10SM CLR 24/10 A3018 RMK AO2
KFYG 191715Z AUTO 30003KT 10SM CLR 23/10 A3018 RMK AO2
KFYG 191655Z AUTO 00000KT 8SM CLR 22/11 A3019 RMK AO2
KFYG 191635Z AUTO 00000KT 10SM CLR 21/11 A3019 RMK AO2
KFYG 191615Z AUTO 00000KT 10SM CLR 20/10 A3019 RMK AO2
KFYG 191555Z AUTO 18004KT 7SM CLR 20/11 A3019 RMK AO2
KFYG 191535Z AUTO 00000KT 10SM CLR 18/12 A3019 RMK AO2
KFYG 191515Z AUTO 00000KT 10SM CLR 17/11 A3020 RMK AO2
KFYG 191435Z AUTO 16004KT 10SM CLR 15/10 A3019 RMK AO2
KFYG 191415Z AUTO 00000KT 10SM CLR 14/10 A3019 RMK AO2
KFYG 191355Z AUTO 00000KT 10SM CLR 12/11 A3019 RMK AO2
KFYG 191335Z AUTO 00000KT 10SM CLR 10/10 A3018 RMK AO2
KFYG 191315Z AUTO 00000KT 10SM CLR 09/09 A3018 RMK AO2